sensor_id;sensor_type;location;lat;lon;timestamp;temperature;humidity
21171;DHT22;10743;52.160;20.910;2023-03-23T00:01:56;23.70;38.20
21171;DHT22;10743;52.160;20.910;2023-03-23T00:04:22;23.70;38.20
21171;DHT22;10743;52.160;20.910;2023-03-23T00:06:51;23.70;38.20
21171;DHT22;10743;52.160;20.910;2023-03-23T00:09:17;23.70;38.30
21171;DHT22;10743;52.160;20.910;2023-03-23T00:11:49;23.70;38.40
21171;DHT22;10743;52.160;20.910;2023-03-23T00:14:16;23.60;38.40
21171;DHT22;10743;52.160;20.910;2023-03-23T00:16:48;23.60;38.40
21171;DHT22;10743;52.160;20.910;2023-03-23T00:19:15;23.60;38.50
21171;DHT22;10743;52.160;20.910;2023-03-23T00:21:44;23.60;38.60
21171;DHT22;10743;52.160;20.910;2023-03-23T00:24:13;23.60;38.60
21171;DHT22;10743;52.160;20.910;2023-03-23T00:26:48;23.60;38.50
21171;DHT22;10743;52.160;20.910;2023-03-23T00:29:20;23.60;38.50
21171;DHT22;10743;52.160;20.910;2023-03-23T00:31:50;23.60;38.70
21171;DHT22;10743;52.160;20.910;2023-03-23T00:34:18;23.60;38.60
21171;DHT22;10743;52.160;20.910;2023-03-23T00:36:47;23.60;38.60
21171;DHT22;10743;52.160;20.910;2023-03-23T00:39:16;23.60;38.70
21171;DHT22;10743;52.160;20.910;2023-03-23T00:41:43;23.60;38.60
21171;DHT22;10743;52.160;20.910;2023-03-23T00:44:10;23.60;38.60
21171;DHT22;10743;52.160;20.910;2023-03-23T00:46:46;23.60;38.60
21171;DHT22;10743;52.160;20.910;2023-03-23T00:49:20;23.60;38.70
21171;DHT22;10743;52.160;20.910;2023-03-23T00:51:51;23.60;38.70
21171;DHT22;10743;52.160;20.910;2023-03-23T00:54:18;23.60;38.60
21171;DHT22;10743;52.160;20.910;2023-03-23T00:56:48;23.60;38.70
21171;DHT22;10743;52.160;20.910;2023-03-23T00:59:14;23.60;38.70
21171;DHT22;10743;52.160;20.910;2023-03-23T01:01:40;23.60;38.80
21171;DHT22;10743;52.160;20.910;2023-03-23T01:04:06;23.60;38.80
21171;DHT22;10743;52.160;20.910;2023-03-23T01:06:37;23.60;38.80
21171;DHT22;10743;52.160;20.910;2023-03-23T01:09:10;23.70;38.70
21171;DHT22;10743;52.160;20.910;2023-03-23T01:11:43;23.60;38.70
21171;DHT22;10743;52.160;20.910;2023-03-23T01:14:11;23.70;38.80
21171;DHT22;10743;52.160;20.910;2023-03-23T01:16:38;23.70;38.90
21171;DHT22;10743;52.160;20.910;2023-03-23T01:19:04;23.70;39.00
21171;DHT22;10743;52.160;20.910;2023-03-23T01:21:30;23.70;39.10
21171;DHT22;10743;52.160;20.910;2023-03-23T01:23:57;23.70;39.00
21171;DHT22;10743;52.160;20.910;2023-03-23T01:26:25;24.00;39.20
21171;DHT22;10743;52.160;20.910;2023-03-23T01:28:53;23.70;39.20
21171;DHT22;10743;52.160;20.910;2023-03-23T01:31:21;23.70;39.10
21171;DHT22;10743;52.160;20.910;2023-03-23T01:33:50;23.70;39.40
21171;DHT22;10743;52.160;20.910;2023-03-23T01:36:23;23.70;39.30
21171;DHT22;10743;52.160;20.910;2023-03-23T01:38:53;23.70;39.40
21171;DHT22;10743;52.160;20.910;2023-03-23T01:41:19;23.70;39.70
21171;DHT22;10743;52.160;20.910;2023-03-23T01:47:03;23.80;39.80
21171;DHT22;10743;52.160;20.910;2023-03-23T01:49:37;23.80;39.70
21171;DHT22;10743;52.160;20.910;2023-03-23T01:52:11;23.90;39.70
21171;DHT22;10743;52.160;20.910;2023-03-23T01:54:45;23.90;39.60
21171;DHT22;10743;52.160;20.910;2023-03-23T01:57:16;23.90;39.60
21171;DHT22;10743;52.160;20.910;2023-03-23T01:59:48;23.90;39.50
21171;DHT22;10743;52.160;20.910;2023-03-23T02:02:22;23.90;39.50
21171;DHT22;10743;52.160;20.910;2023-03-23T02:04:51;23.90;39.40
21171;DHT22;10743;52.160;20.910;2023-03-23T02:07:22;23.90;39.40
21171;DHT22;10743;52.160;20.910;2023-03-23T02:09:51;23.90;39.30
21171;DHT22;10743;52.160;20.910;2023-03-23T02:12:18;23.90;39.20
21171;DHT22;10743;52.160;20.910;2023-03-23T02:14:45;23.90;39.20
21171;DHT22;10743;52.160;20.910;2023-03-23T02:20:33;24.00;39.30
21171;DHT22;10743;52.160;20.910;2023-03-23T02:27:01;24.00;39.30
21171;DHT22;10743;52.160;20.910;2023-03-23T02:29:48;24.00;39.30
21171;DHT22;10743;52.160;20.910;2023-03-23T02:38:45;24.10;39.40
21171;DHT22;10743;52.160;20.910;2023-03-23T02:41:20;24.00;39.30
21171;DHT22;10743;52.160;20.910;2023-03-23T02:43:49;24.00;39.40
21171;DHT22;10743;52.160;20.910;2023-03-23T02:46:17;24.10;39.50
21171;DHT22;10743;52.160;20.910;2023-03-23T02:48:44;24.10;39.50
21171;DHT22;10743;52.160;20.910;2023-03-23T02:51:15;24.10;39.40
21171;DHT22;10743;52.160;20.910;2023-03-23T02:53:43;24.10;39.50
21171;DHT22;10743;52.160;20.910;2023-03-23T02:56:10;24.20;39.50
21171;DHT22;10743;52.160;20.910;2023-03-23T02:58:37;24.20;39.50
21171;DHT22;10743;52.160;20.910;2023-03-23T03:03:50;24.20;39.50
21171;DHT22;10743;52.160;20.910;2023-03-23T03:06:42;24.20;39.40
21171;DHT22;10743;52.160;20.910;2023-03-23T03:15:22;24.40;39.20
21171;DHT22;10743;52.160;20.910;2023-03-23T03:18:03;24.40;39.20
21171;DHT22;10743;52.160;20.910;2023-03-23T03:20:32;24.40;39.10
21171;DHT22;10743;52.160;20.910;2023-03-23T03:23:02;24.40;39.10
21171;DHT22;10743;52.160;20.910;2023-03-23T03:25:31;24.50;39.10
21171;DHT22;10743;52.160;20.910;2023-03-23T03:27:57;24.50;39.00
21171;DHT22;10743;52.160;20.910;2023-03-23T03:30:38;24.50;39.00
21171;DHT22;10743;52.160;20.910;2023-03-23T03:33:05;24.50;39.00
21171;DHT22;10743;52.160;20.910;2023-03-23T03:35:36;24.50;38.90
21171;DHT22;10743;52.160;20.910;2023-03-23T03:38:08;24.50;38.90
21171;DHT22;10743;52.160;20.910;2023-03-23T03:40:35;24.50;38.80
21171;DHT22;10743;52.160;20.910;2023-03-23T03:43:01;24.50;39.20
21171;DHT22;10743;52.160;20.910;2023-03-23T03:45:28;24.50;38.80
21171;DHT22;10743;52.160;20.910;2023-03-23T03:47:54;24.50;38.70
21171;DHT22;10743;52.160;20.910;2023-03-23T03:50:21;24.50;38.70
21171;DHT22;10743;52.160;20.910;2023-03-23T03:52:47;24.50;38.60
21171;DHT22;10743;52.160;20.910;2023-03-23T03:55:13;24.50;38.60
21171;DHT22;10743;52.160;20.910;2023-03-23T03:57:43;24.50;38.60
21171;DHT22;10743;52.160;20.910;2023-03-23T04:00:45;24.50;38.50
21171;DHT22;10743;52.160;20.910;2023-03-23T04:03:17;24.50;38.40
21171;DHT22;10743;52.160;20.910;2023-03-23T04:05:55;24.50;38.50
21171;DHT22;10743;52.160;20.910;2023-03-23T04:08:22;24.40;38.40
21171;DHT22;10743;52.160;20.910;2023-03-23T04:10:49;24.40;38.50
21171;DHT22;10743;52.160;20.910;2023-03-23T04:13:17;24.40;38.50
21171;DHT22;10743;52.160;20.910;2023-03-23T04:16:03;24.40;38.60
21171;DHT22;10743;52.160;20.910;2023-03-23T04:18:32;24.30;38.60
21171;DHT22;10743;52.160;20.910;2023-03-23T04:21:00;24.30;38.60
21171;DHT22;10743;52.160;20.910;2023-03-23T04:23:28;24.20;38.60
21171;DHT22;10743;52.160;20.910;2023-03-23T04:26:00;24.20;38.70
21171;DHT22;10743;52.160;20.910;2023-03-23T04:28:34;24.20;38.70
21171;DHT22;10743;52.160;20.910;2023-03-23T04:31:24;24.20;38.70
21171;DHT22;10743;52.160;20.910;2023-03-23T04:33:53;24.20;38.60
21171;DHT22;10743;52.160;20.910;2023-03-23T04:36:21;24.10;38.70
21171;DHT22;10743;52.160;20.910;2023-03-23T04:38:56;24.20;38.80
21171;DHT22;10743;52.160;20.910;2023-03-23T04:41:24;24.20;38.80
21171;DHT22;10743;52.160;20.910;2023-03-23T04:44:10;24.10;38.80
21171;DHT22;10743;52.160;20.910;2023-03-23T04:46:44;24.10;38.80
21171;DHT22;10743;52.160;20.910;2023-03-23T04:49:16;24.10;38.80
21171;DHT22;10743;52.160;20.910;2023-03-23T04:51:48;24.10;38.80
21171;DHT22;10743;52.160;20.910;2023-03-23T04:54:30;24.10;38.80
21171;DHT22;10743;52.160;20.910;2023-03-23T04:56:59;24.10;38.80
21171;DHT22;10743;52.160;20.910;2023-03-23T04:59:26;24.10;38.80
21171;DHT22;10743;52.160;20.910;2023-03-23T05:02:25;24.20;38.70
21171;DHT22;10743;52.160;20.910;2023-03-23T05:04:57;24.20;38.70
21171;DHT22;10743;52.160;20.910;2023-03-23T05:07:25;24.20;38.70
21171;DHT22;10743;52.160;20.910;2023-03-23T05:09:53;24.20;38.70
21171;DHT22;10743;52.160;20.910;2023-03-23T05:12:23;24.20;38.70
21171;DHT22;10743;52.160;20.910;2023-03-23T05:15:10;24.30;38.70
21171;DHT22;10743;52.160;20.910;2023-03-23T05:17:38;24.30;38.70
21171;DHT22;10743;52.160;20.910;2023-03-23T05:20:14;24.30;38.70
21171;DHT22;10743;52.160;20.910;2023-03-23T05:22:50;24.30;38.70
21171;DHT22;10743;52.160;20.910;2023-03-23T05:25:21;24.30;38.60
21171;DHT22;10743;52.160;20.910;2023-03-23T05:28:05;24.40;38.60
21171;DHT22;10743;52.160;20.910;2023-03-23T05:30:49;24.40;38.60
21171;DHT22;10743;52.160;20.910;2023-03-23T05:33:16;24.30;38.70
21171;DHT22;10743;52.160;20.910;2023-03-23T05:35:49;24.40;38.80
21171;DHT22;10743;52.160;20.910;2023-03-23T05:38:20;24.40;38.90
21171;DHT22;10743;52.160;20.910;2023-03-23T05:40:48;24.40;38.90
21171;DHT22;10743;52.160;20.910;2023-03-23T05:43:17;24.40;38.90
21171;DHT22;10743;52.160;20.910;2023-03-23T05:46:06;24.40;38.90
21171;DHT22;10743;52.160;20.910;2023-03-23T05:48:33;24.50;38.90
21171;DHT22;10743;52.160;20.910;2023-03-23T05:51:01;24.50;38.80
21171;DHT22;10743;52.160;20.910;2023-03-23T05:53:29;24.60;38.80
21171;DHT22;10743;52.160;20.910;2023-03-23T05:56:01;24.60;38.70
21171;DHT22;10743;52.160;20.910;2023-03-23T05:58:45;24.70;39.20
21171;DHT22;10743;52.160;20.910;2023-03-23T06:01:11;24.70;38.50
21171;DHT22;10743;52.160;20.910;2023-03-23T06:03:40;24.80;38.50
21171;DHT22;10743;52.160;20.910;2023-03-23T06:06:16;24.80;38.40
21171;DHT22;10743;52.160;20.910;2023-03-23T06:08:53;24.80;38.40
21171;DHT22;10743;52.160;20.910;2023-03-23T06:11:29;24.90;38.40
21171;DHT22;10743;52.160;20.910;2023-03-23T06:14:13;25.00;38.10
21171;DHT22;10743;52.160;20.910;2023-03-23T06:16:40;25.10;37.90
21171;DHT22;10743;52.160;20.910;2023-03-23T06:19:09;25.10;37.90
21171;DHT22;10743;52.160;20.910;2023-03-23T06:21:42;25.10;37.90
21171;DHT22;10743;52.160;20.910;2023-03-23T06:24:20;25.20;37.90
21171;DHT22;10743;52.160;20.910;2023-03-23T06:26:47;25.20;37.90
21171;DHT22;10743;52.160;20.910;2023-03-23T06:29:18;25.20;37.90
21171;DHT22;10743;52.160;20.910;2023-03-23T06:31:52;25.20;38.00
21171;DHT22;10743;52.160;20.910;2023-03-23T06:34:23;25.30;37.90
21171;DHT22;10743;52.160;20.910;2023-03-23T06:37:07;25.40;37.80
21171;DHT22;10743;52.160;20.910;2023-03-23T06:39:38;25.50;37.60
21171;DHT22;10743;52.160;20.910;2023-03-23T06:42:15;25.50;37.50
21171;DHT22;10743;52.160;20.910;2023-03-23T06:44:47;25.50;37.60
21171;DHT22;10743;52.160;20.910;2023-03-23T06:47:14;25.60;37.50
21171;DHT22;10743;52.160;20.910;2023-03-23T06:49:45;25.60;37.60
21171;DHT22;10743;52.160;20.910;2023-03-23T06:52:25;25.70;37.60
21171;DHT22;10743;52.160;20.910;2023-03-23T06:54:52;25.80;37.30
21171;DHT22;10743;52.160;20.910;2023-03-23T06:57:20;25.80;37.30
21171;DHT22;10743;52.160;20.910;2023-03-23T06:59:48;25.90;37.10
21171;DHT22;10743;52.160;20.910;2023-03-23T07:02:14;26.00;37.20
21171;DHT22;10743;52.160;20.910;2023-03-23T07:04:43;26.00;37.10
21171;DHT22;10743;52.160;20.910;2023-03-23T07:07:15;26.10;37.00
21171;DHT22;10743;52.160;20.910;2023-03-23T07:10:08;26.10;37.00
21171;DHT22;10743;52.160;20.910;2023-03-23T07:12:36;26.20;37.00
21171;DHT22;10743;52.160;20.910;2023-03-23T07:15:05;26.20;37.10
21171;DHT22;10743;52.160;20.910;2023-03-23T07:17:35;26.20;37.00
21171;DHT22;10743;52.160;20.910;2023-03-23T07:20:12;26.30;36.90
21171;DHT22;10743;52.160;20.910;2023-03-23T07:22:39;26.30;36.60
21171;DHT22;10743;52.160;20.910;2023-03-23T07:25:15;26.30;36.70
21171;DHT22;10743;52.160;20.910;2023-03-23T07:27:49;26.40;36.60
21171;DHT22;10743;52.160;20.910;2023-03-23T07:30:17;26.50;36.30
21171;DHT22;10743;52.160;20.910;2023-03-23T07:32:43;26.50;36.40
21171;DHT22;10743;52.160;20.910;2023-03-23T07:35:09;26.50;36.60
21171;DHT22;10743;52.160;20.910;2023-03-23T07:37:50;26.50;36.80
21171;DHT22;10743;52.160;20.910;2023-03-23T07:40:18;26.60;36.70
21171;DHT22;10743;52.160;20.910;2023-03-23T07:42:53;26.60;36.50
21171;DHT22;10743;52.160;20.910;2023-03-23T07:45:29;26.80;35.70
21171;DHT22;10743;52.160;20.910;2023-03-23T07:47:57;26.90;35.60
21171;DHT22;10743;52.160;20.910;2023-03-23T07:50:23;26.80;35.70
21171;DHT22;10743;52.160;20.910;2023-03-23T07:52:56;26.90;35.70
21171;DHT22;10743;52.160;20.910;2023-03-23T07:55:24;26.90;35.90
21171;DHT22;10743;52.160;20.910;2023-03-23T07:58:31;27.00;35.40
21171;DHT22;10743;52.160;20.910;2023-03-23T08:00:57;27.10;35.30
21171;DHT22;10743;52.160;20.910;2023-03-23T08:03:28;27.20;35.10
21171;DHT22;10743;52.160;20.910;2023-03-23T08:06:09;27.30;34.80
21171;DHT22;10743;52.160;20.910;2023-03-23T08:08:47;27.50;34.50
21171;DHT22;10743;52.160;20.910;2023-03-23T08:11:31;27.50;34.80
21171;DHT22;10743;52.160;20.910;2023-03-23T08:14:17;27.60;34.20
21171;DHT22;10743;52.160;20.910;2023-03-23T08:17:12;27.70;34.60
21171;DHT22;10743;52.160;20.910;2023-03-23T08:20:02;27.70;34.80
21171;DHT22;10743;52.160;20.910;2023-03-23T08:22:52;27.80;33.90
21171;DHT22;10743;52.160;20.910;2023-03-23T08:25:39;27.90;33.70
21171;DHT22;10743;52.160;20.910;2023-03-23T08:28:25;28.00;33.50
21171;DHT22;10743;52.160;20.910;2023-03-23T08:31:15;28.10;33.40
21171;DHT22;10743;52.160;20.910;2023-03-23T08:34:03;28.10;33.10
21171;DHT22;10743;52.160;20.910;2023-03-23T08:37:03;28.20;32.80
21171;DHT22;10743;52.160;20.910;2023-03-23T08:39:54;28.30;32.60
21171;DHT22;10743;52.160;20.910;2023-03-23T08:42:42;28.40;32.40
21171;DHT22;10743;52.160;20.910;2023-03-23T08:45:28;28.50;32.10
21171;DHT22;10743;52.160;20.910;2023-03-23T08:48:11;28.40;32.10
21171;DHT22;10743;52.160;20.910;2023-03-23T08:50:39;28.40;31.90
21171;DHT22;10743;52.160;20.910;2023-03-23T08:53:19;28.50;31.80
21171;DHT22;10743;52.160;20.910;2023-03-23T08:56:14;28.50;31.50
21171;DHT22;10743;52.160;20.910;2023-03-23T08:59:03;28.60;31.70
21171;DHT22;10743;52.160;20.910;2023-03-23T09:01:34;28.60;31.40
21171;DHT22;10743;52.160;20.910;2023-03-23T09:04:19;28.70;31.70
21171;DHT22;10743;52.160;20.910;2023-03-23T09:06:53;28.80;31.40
21171;DHT22;10743;52.160;20.910;2023-03-23T09:09:21;28.80;31.80
21171;DHT22;10743;52.160;20.910;2023-03-23T09:11:47;28.80;31.80
21171;DHT22;10743;52.160;20.910;2023-03-23T09:14:12;28.90;30.90
21171;DHT22;10743;52.160;20.910;2023-03-23T09:16:38;28.90;31.20
21171;DHT22;10743;52.160;20.910;2023-03-23T09:19:05;29.00;31.30
21171;DHT22;10743;52.160;20.910;2023-03-23T09:21:34;29.00;31.40
21171;DHT22;10743;52.160;20.910;2023-03-23T09:24:00;29.00;31.10
21171;DHT22;10743;52.160;20.910;2023-03-23T09:26:27;29.10;31.30
21171;DHT22;10743;52.160;20.910;2023-03-23T09:28:53;29.10;31.80
21171;DHT22;10743;52.160;20.910;2023-03-23T09:31:22;29.20;31.10
21171;DHT22;10743;52.160;20.910;2023-03-23T09:33:52;29.20;31.10
21171;DHT22;10743;52.160;20.910;2023-03-23T09:36:21;29.30;31.10
21171;DHT22;10743;52.160;20.910;2023-03-23T09:38:48;29.30;31.10
21171;DHT22;10743;52.160;20.910;2023-03-23T09:47:15;29.60;30.00
21171;DHT22;10743;52.160;20.910;2023-03-23T09:49:56;29.70;29.50
21171;DHT22;10743;52.160;20.910;2023-03-23T09:55:18;29.60;30.00
21171;DHT22;10743;52.160;20.910;2023-03-23T09:57:55;29.60;30.30
21171;DHT22;10743;52.160;20.910;2023-03-23T10:00:35;29.70;30.00
21171;DHT22;10743;52.160;20.910;2023-03-23T10:03:19;29.70;29.80
21171;DHT22;10743;52.160;20.910;2023-03-23T10:05:49;29.80;30.10
21171;DHT22;10743;52.160;20.910;2023-03-23T10:08:20;29.90;30.00
21171;DHT22;10743;52.160;20.910;2023-03-23T10:11:14;30.10;29.70
21171;DHT22;10743;52.160;20.910;2023-03-23T10:22:42;30.50;29.50
21171;DHT22;10743;52.160;20.910;2023-03-23T10:25:18;30.60;29.40
21171;DHT22;10743;52.160;20.910;2023-03-23T10:27:52;30.80;29.00
21171;DHT22;10743;52.160;20.910;2023-03-23T10:30:36;31.00;28.40
21171;DHT22;10743;52.160;20.910;2023-03-23T10:36:14;31.30;27.70
21171;DHT22;10743;52.160;20.910;2023-03-23T10:38:47;31.30;27.90
21171;DHT22;10743;52.160;20.910;2023-03-23T10:41:18;31.40;27.70
21171;DHT22;10743;52.160;20.910;2023-03-23T10:43:46;31.50;27.20
21171;DHT22;10743;52.160;20.910;2023-03-23T10:49:26;31.50;27.90
21171;DHT22;10743;52.160;20.910;2023-03-23T10:54:36;31.70;27.70
21171;DHT22;10743;52.160;20.910;2023-03-23T10:57:20;31.70;27.30
21171;DHT22;10743;52.160;20.910;2023-03-23T10:59:58;31.70;27.70
21171;DHT22;10743;52.160;20.910;2023-03-23T11:02:37;31.70;27.20
21171;DHT22;10743;52.160;20.910;2023-03-23T11:05:16;31.80;27.40
21171;DHT22;10743;52.160;20.910;2023-03-23T11:07:56;31.70;27.30
21171;DHT22;10743;52.160;20.910;2023-03-23T11:10:34;31.80;27.40
21171;DHT22;10743;52.160;20.910;2023-03-23T11:13:02;31.80;27.30
21171;DHT22;10743;52.160;20.910;2023-03-23T11:15:36;31.70;27.70
21171;DHT22;10743;52.160;20.910;2023-03-23T11:18:18;31.70;27.60
21171;DHT22;10743;52.160;20.910;2023-03-23T11:20:53;31.80;27.70
21171;DHT22;10743;52.160;20.910;2023-03-23T11:23:27;31.90;27.60
21171;DHT22;10743;52.160;20.910;2023-03-23T11:29:18;32.10;25.50
21171;DHT22;10743;52.160;20.910;2023-03-23T11:32:02;32.20;24.70
21171;DHT22;10743;52.160;20.910;2023-03-23T11:34:41;32.40;25.00
21171;DHT22;10743;52.160;20.910;2023-03-23T11:39:58;32.70;25.40
21171;DHT22;10743;52.160;20.910;2023-03-23T11:42:36;32.80;25.50
21171;DHT22;10743;52.160;20.910;2023-03-23T11:45:20;32.90;25.50
21171;DHT22;10743;52.160;20.910;2023-03-23T11:51:37;33.20;24.70
21171;DHT22;10743;52.160;20.910;2023-03-23T11:56:34;33.00;25.30
21171;DHT22;10743;52.160;20.910;2023-03-23T11:59:32;33.10;25.40
21171;DHT22;10743;52.160;20.910;2023-03-23T12:05:20;33.30;25.00
21171;DHT22;10743;52.160;20.910;2023-03-23T12:11:10;33.50;25.00
21171;DHT22;10743;52.160;20.910;2023-03-23T12:16:32;33.60;24.70
21171;DHT22;10743;52.160;20.910;2023-03-23T12:25:08;33.50;25.00
21171;DHT22;10743;52.160;20.910;2023-03-23T12:31:12;33.50;24.70
21171;DHT22;10743;52.160;20.910;2023-03-23T12:34:20;33.50;24.90
21171;DHT22;10743;52.160;20.910;2023-03-23T12:36:44;33.50;24.70
21171;DHT22;10743;52.160;20.910;2023-03-23T12:45:17;33.40;25.10
21171;DHT22;10743;52.160;20.910;2023-03-23T12:48:00;33.40;25.20
21171;DHT22;10743;52.160;20.910;2023-03-23T12:53:36;33.40;25.00
21171;DHT22;10743;52.160;20.910;2023-03-23T12:56:36;33.40;25.10
21171;DHT22;10743;52.160;20.910;2023-03-23T12:59:28;33.40;25.20
21171;DHT22;10743;52.160;20.910;2023-03-23T13:02:33;33.40;25.10
21171;DHT22;10743;52.160;20.910;2023-03-23T13:05:33;33.30;25.40
21171;DHT22;10743;52.160;20.910;2023-03-23T13:08:39;33.30;25.50
21171;DHT22;10743;52.160;20.910;2023-03-23T13:11:04;33.30;25.50
21171;DHT22;10743;52.160;20.910;2023-03-23T13:13:59;33.30;25.40
21171;DHT22;10743;52.160;20.910;2023-03-23T13:22:39;33.20;25.40
21171;DHT22;10743;52.160;20.910;2023-03-23T13:25:13;33.10;25.40
21171;DHT22;10743;52.160;20.910;2023-03-23T13:27:57;33.00;25.60
21171;DHT22;10743;52.160;20.910;2023-03-23T13:30:24;32.90;25.80
21171;DHT22;10743;52.160;20.910;2023-03-23T13:32:51;32.90;25.60
21171;DHT22;10743;52.160;20.910;2023-03-23T13:35:20;32.90;25.60
21171;DHT22;10743;52.160;20.910;2023-03-23T13:37:49;32.90;25.40
21171;DHT22;10743;52.160;20.910;2023-03-23T13:40:28;32.90;25.10
21171;DHT22;10743;52.160;20.910;2023-03-23T13:42:57;32.80;25.50
21171;DHT22;10743;52.160;20.910;2023-03-23T13:45:42;32.80;25.50
21171;DHT22;10743;52.160;20.910;2023-03-23T13:50:59;32.70;25.40
21171;DHT22;10743;52.160;20.910;2023-03-23T13:53:47;32.80;25.80
21171;DHT22;10743;52.160;20.910;2023-03-23T13:56:18;32.80;25.60
21171;DHT22;10743;52.160;20.910;2023-03-23T13:59:27;32.70;25.70
21171;DHT22;10743;52.160;20.910;2023-03-23T14:02:26;32.80;25.60
21171;DHT22;10743;52.160;20.910;2023-03-23T14:07:57;32.80;25.90
21171;DHT22;10743;52.160;20.910;2023-03-23T14:11:23;32.80;25.90
21171;DHT22;10743;52.160;20.910;2023-03-23T14:16:21;32.70;26.00
21171;DHT22;10743;52.160;20.910;2023-03-23T14:18:59;32.70;26.20
21171;DHT22;10743;52.160;20.910;2023-03-23T14:21:41;32.70;26.30
21171;DHT22;10743;52.160;20.910;2023-03-23T14:24:12;32.60;26.40
21171;DHT22;10743;52.160;20.910;2023-03-23T14:26:41;32.60;26.50
21171;DHT22;10743;52.160;20.910;2023-03-23T14:29:12;32.50;26.40
21171;DHT22;10743;52.160;20.910;2023-03-23T14:31:40;32.50;26.50
21171;DHT22;10743;52.160;20.910;2023-03-23T14:34:20;32.40;26.30
21171;DHT22;10743;52.160;20.910;2023-03-23T14:36:48;32.40;26.50
21171;DHT22;10743;52.160;20.910;2023-03-23T14:39:28;32.40;26.70
21171;DHT22;10743;52.160;20.910;2023-03-23T14:42:01;32.30;26.70
21171;DHT22;10743;52.160;20.910;2023-03-23T14:44:46;32.30;26.80
21171;DHT22;10743;52.160;20.910;2023-03-23T14:47:22;32.20;26.90
21171;DHT22;10743;52.160;20.910;2023-03-23T14:49:59;32.20;27.00
21171;DHT22;10743;52.160;20.910;2023-03-23T14:52:28;32.10;27.20
21171;DHT22;10743;52.160;20.910;2023-03-23T14:55:06;32.10;27.10
21171;DHT22;10743;52.160;20.910;2023-03-23T14:57:40;32.00;27.20
21171;DHT22;10743;52.160;20.910;2023-03-23T15:00:32;31.90;27.20
21171;DHT22;10743;52.160;20.910;2023-03-23T15:03:01;31.90;27.30
21171;DHT22;10743;52.160;20.910;2023-03-23T15:05:32;31.80;27.40
21171;DHT22;10743;52.160;20.910;2023-03-23T15:08:34;31.70;27.60
21171;DHT22;10743;52.160;20.910;2023-03-23T15:11:23;31.60;27.70
21171;DHT22;10743;52.160;20.910;2023-03-23T15:13:58;31.60;27.70
21171;DHT22;10743;52.160;20.910;2023-03-23T15:16:31;31.60;27.80
21171;DHT22;10743;52.160;20.910;2023-03-23T15:21:34;31.50;28.50
21171;DHT22;10743;52.160;20.910;2023-03-23T15:24:17;31.50;28.20
21171;DHT22;10743;52.160;20.910;2023-03-23T15:26:46;31.50;28.30
21171;DHT22;10743;52.160;20.910;2023-03-23T15:31:44;31.40;28.40
21171;DHT22;10743;52.160;20.910;2023-03-23T15:34:29;31.40;28.40
21171;DHT22;10743;52.160;20.910;2023-03-23T15:37:03;31.40;28.50
21171;DHT22;10743;52.160;20.910;2023-03-23T15:39:31;31.40;28.50
21171;DHT22;10743;52.160;20.910;2023-03-23T15:41:59;31.40;28.70
21171;DHT22;10743;52.160;20.910;2023-03-23T15:44:32;31.30;28.70
21171;DHT22;10743;52.160;20.910;2023-03-23T15:47:14;31.30;28.80
21171;DHT22;10743;52.160;20.910;2023-03-23T15:49:45;31.30;28.90
21171;DHT22;10743;52.160;20.910;2023-03-23T15:52:13;31.30;28.90
21171;DHT22;10743;52.160;20.910;2023-03-23T15:54:46;31.30;29.00
21171;DHT22;10743;52.160;20.910;2023-03-23T15:57:13;31.20;29.00
21171;DHT22;10743;52.160;20.910;2023-03-23T15:59:39;31.30;29.00
21171;DHT22;10743;52.160;20.910;2023-03-23T16:02:16;31.20;29.00
21171;DHT22;10743;52.160;20.910;2023-03-23T16:04:46;31.10;29.10
21171;DHT22;10743;52.160;20.910;2023-03-23T16:07:14;31.10;29.00
21171;DHT22;10743;52.160;20.910;2023-03-23T16:09:41;31.10;29.10
21171;DHT22;10743;52.160;20.910;2023-03-23T16:12:12;31.00;29.20
21171;DHT22;10743;52.160;20.910;2023-03-23T16:14:40;31.00;29.20
21171;DHT22;10743;52.160;20.910;2023-03-23T16:17:11;31.00;29.20
21171;DHT22;10743;52.160;20.910;2023-03-23T16:19:41;30.90;29.40
21171;DHT22;10743;52.160;20.910;2023-03-23T16:22:09;30.90;29.40
21171;DHT22;10743;52.160;20.910;2023-03-23T16:24:36;30.90;29.50
21171;DHT22;10743;52.160;20.910;2023-03-23T16:27:04;30.90;29.60
21171;DHT22;10743;52.160;20.910;2023-03-23T16:29:31;30.80;29.80
21171;DHT22;10743;52.160;20.910;2023-03-23T16:32:18;30.80;30.00
21171;DHT22;10743;52.160;20.910;2023-03-23T16:34:45;30.80;30.10
21171;DHT22;10743;52.160;20.910;2023-03-23T16:37:12;30.80;30.40
21171;DHT22;10743;52.160;20.910;2023-03-23T16:39:39;30.70;30.60
21171;DHT22;10743;52.160;20.910;2023-03-23T16:42:06;30.60;30.80
21171;DHT22;10743;52.160;20.910;2023-03-23T16:44:33;30.60;30.80
21171;DHT22;10743;52.160;20.910;2023-03-23T16:47:00;30.50;30.70
21171;DHT22;10743;52.160;20.910;2023-03-23T16:49:27;30.50;30.80
21171;DHT22;10743;52.160;20.910;2023-03-23T16:51:54;30.50;30.70
21171;DHT22;10743;52.160;20.910;2023-03-23T16:54:21;30.50;30.70
21171;DHT22;10743;52.160;20.910;2023-03-23T16:56:48;30.40;30.60
21171;DHT22;10743;52.160;20.910;2023-03-23T16:59:15;30.40;30.60
21171;DHT22;10743;52.160;20.910;2023-03-23T17:01:42;30.40;30.70
21171;DHT22;10743;52.160;20.910;2023-03-23T17:04:09;30.30;30.70
21171;DHT22;10743;52.160;20.910;2023-03-23T17:06:36;30.30;30.80
21171;DHT22;10743;52.160;20.910;2023-03-23T17:09:03;30.30;30.80
21171;DHT22;10743;52.160;20.910;2023-03-23T17:11:32;30.30;30.90
21171;DHT22;10743;52.160;20.910;2023-03-23T17:13:59;30.20;30.90
21171;DHT22;10743;52.160;20.910;2023-03-23T17:16:26;30.20;31.00
21171;DHT22;10743;52.160;20.910;2023-03-23T17:18:53;30.20;31.00
21171;DHT22;10743;52.160;20.910;2023-03-23T17:21:20;30.20;31.10
21171;DHT22;10743;52.160;20.910;2023-03-23T17:23:51;30.20;31.00
21171;DHT22;10743;52.160;20.910;2023-03-23T17:26:18;30.20;31.00
21171;DHT22;10743;52.160;20.910;2023-03-23T17:28:45;30.20;31.10
21171;DHT22;10743;52.160;20.910;2023-03-23T17:31:12;30.10;31.20
21171;DHT22;10743;52.160;20.910;2023-03-23T17:33:39;30.10;31.30
21171;DHT22;10743;52.160;20.910;2023-03-23T17:36:07;30.10;31.30
21171;DHT22;10743;52.160;20.910;2023-03-23T17:38:34;30.00;31.40
21171;DHT22;10743;52.160;20.910;2023-03-23T17:41:01;29.90;31.40
21171;DHT22;10743;52.160;20.910;2023-03-23T17:43:31;29.90;31.50
21171;DHT22;10743;52.160;20.910;2023-03-23T17:45:59;29.90;31.60
21171;DHT22;10743;52.160;20.910;2023-03-23T17:48:26;29.80;31.60